createdAt,value
2018-07-27T00:01:10.210Z,47.50
2018-07-27T00:03:37.806Z,48.70
2018-07-27T00:06:05.385Z,45.60
2018-07-27T00:08:32.977Z,44.30
2018-07-27T00:11:00.569Z,43.50
2018-07-27T00:13:28.136Z,44.40
2018-07-27T00:15:55.715Z,48.70
2018-07-27T00:18:23.308Z,50.00
2018-07-27T00:20:50.873Z,51.20
2018-07-27T00:23:18.613Z,51.40
2018-07-27T00:25:46.220Z,52.30
2018-07-27T00:28:13.752Z,52.80
2018-07-27T00:30:41.418Z,53.00
2018-07-27T00:33:09.037Z,53.00
2018-07-27T00:35:36.658Z,53.10
2018-07-27T00:38:04.257Z,52.80
2018-07-27T00:40:31.829Z,52.80
2018-07-27T00:42:59.405Z,52.60
2018-07-27T00:45:26.973Z,51.40
2018-07-27T00:47:54.544Z,51.50
2018-07-27T00:50:22.133Z,52.50
2018-07-27T00:52:49.762Z,52.10
2018-07-27T00:55:17.371Z,52.20
2018-07-27T00:57:44.956Z,52.30
2018-07-27T01:00:12.537Z,51.70
2018-07-27T01:02:40.138Z,52.20
2018-07-27T01:05:07.768Z,52.80
2018-07-27T01:07:35.344Z,52.80
2018-07-27T01:10:03.031Z,52.90
2018-07-27T01:12:30.597Z,52.90
2018-07-27T01:14:58.176Z,53.00
2018-07-27T01:17:25.761Z,53.20
2018-07-27T01:19:53.329Z,53.40
2018-07-27T01:22:20.952Z,53.60
2018-07-27T01:24:48.546Z,54.00
2018-07-27T01:27:16.101Z,53.80
2018-07-27T01:29:43.712Z,53.80
2018-07-27T01:32:11.265Z,53.40
2018-07-27T01:34:38.828Z,53.20
2018-07-27T01:37:06.424Z,53.90
2018-07-27T01:39:33.988Z,54.60
2018-07-27T01:42:01.567Z,54.80
2018-07-27T01:44:29.144Z,54.60
2018-07-27T01:46:56.711Z,54.60
2018-07-27T01:49:24.441Z,54.20
2018-07-27T01:51:52.008Z,54.30
2018-07-27T01:54:19.560Z,54.30
2018-07-27T01:56:47.246Z,54.60
2018-07-27T01:59:14.785Z,54.90
2018-07-27T02:01:42.368Z,55.20
2018-07-27T02:04:09.927Z,55.30
2018-07-27T02:06:37.548Z,55.40
2018-07-27T02:09:07.433Z,55.50
2018-07-27T02:11:35.033Z,55.50
2018-07-27T02:14:02.749Z,55.60
2018-07-27T02:16:30.312Z,55.30
2018-07-27T02:18:57.885Z,54.50
2018-07-27T02:21:25.460Z,53.80
2018-07-27T02:23:53.025Z,53.50
2018-07-27T02:26:20.592Z,53.50
2018-07-27T02:28:48.148Z,53.90
2018-07-27T02:31:15.743Z,54.50
2018-07-27T02:33:43.418Z,55.40
2018-07-27T02:36:10.991Z,55.20
2018-07-27T02:38:38.547Z,55.10
2018-07-27T02:41:06.148Z,54.50
2018-07-27T02:43:33.715Z,54.00
2018-07-27T02:46:01.296Z,54.10
2018-07-27T02:48:29.063Z,54.30
2018-07-27T02:50:56.667Z,54.90
2018-07-27T02:53:24.417Z,55.20
2018-07-27T02:55:52.037Z,55.20
2018-07-27T02:58:19.609Z,55.60
2018-07-27T03:00:47.237Z,55.50
2018-07-27T03:03:14.805Z,55.90
2018-07-27T03:05:42.392Z,55.50
2018-07-27T03:08:10.057Z,56.10
2018-07-27T03:10:37.638Z,56.30
2018-07-27T03:13:05.266Z,56.70
2018-07-27T03:15:32.846Z,56.90
2018-07-27T03:18:00.396Z,57.00
2018-07-27T03:20:27.999Z,57.00
2018-07-27T03:22:55.605Z,56.90
2018-07-27T03:25:23.215Z,57.00
2018-07-27T03:27:50.781Z,57.00
2018-07-27T03:30:18.380Z,57.30
2018-07-27T03:32:45.949Z,57.60
2018-07-27T03:35:13.552Z,57.30
2018-07-27T03:37:41.128Z,57.30
2018-07-27T03:40:08.738Z,57.40
2018-07-27T03:42:36.556Z,57.10
2018-07-27T03:45:04.492Z,57.10
2018-07-27T03:47:32.060Z,57.00
2018-07-27T03:49:59.800Z,56.60
2018-07-27T03:52:27.373Z,56.10
2018-07-27T03:54:55.014Z,56.20
2018-07-27T03:57:22.660Z,56.60
2018-07-27T03:59:50.233Z,57.00
2018-07-27T04:02:17.862Z,57.20
2018-07-27T04:04:45.416Z,57.50
2018-07-27T04:07:12.966Z,57.50
2018-07-27T04:09:40.591Z,57.70
2018-07-27T04:12:08.204Z,57.90
2018-07-27T04:14:36.106Z,57.70
2018-07-27T04:17:03.740Z,57.50
2018-07-27T04:19:31.304Z,57.50
2018-07-27T04:21:58.897Z,57.50
2018-07-27T04:24:26.477Z,57.50
2018-07-27T04:26:54.198Z,57.70
2018-07-27T04:29:22.044Z,57.70
2018-07-27T04:31:49.602Z,57.70
2018-07-27T04:34:17.156Z,57.60
2018-07-27T04:36:44.768Z,57.60
2018-07-27T04:39:12.327Z,57.60
2018-07-27T04:41:39.904Z,57.30
2018-07-27T04:44:07.475Z,57.10
2018-07-27T04:46:35.321Z,57.30
2018-07-27T04:49:02.899Z,57.30
2018-07-27T04:51:30.536Z,57.10
2018-07-27T04:53:58.113Z,57.10
2018-07-27T04:56:25.692Z,57.10
2018-07-27T04:58:53.216Z,57.10
2018-07-27T05:01:21.105Z,56.10
2018-07-27T05:03:48.684Z,55.60
2018-07-27T05:06:16.251Z,55.50
2018-07-27T05:08:49.480Z,55.60
2018-07-27T05:11:17.107Z,55.50
2018-07-27T05:13:44.718Z,55.30
2018-07-27T05:16:12.312Z,55.10
2018-07-27T05:18:39.868Z,55.20
2018-07-27T05:21:07.421Z,54.80
2018-07-27T05:23:35.177Z,54.60
2018-07-27T05:26:02.789Z,54.70
2018-07-27T05:28:30.388Z,54.70
2018-07-27T05:30:58.052Z,53.80
2018-07-27T05:33:25.700Z,53.20
2018-07-27T05:35:53.297Z,53.40
2018-07-27T05:38:20.868Z,52.80
2018-07-27T05:40:48.441Z,52.40
2018-07-27T05:43:16.017Z,51.10
2018-07-27T05:45:43.609Z,48.50
2018-07-27T05:48:11.212Z,43.90
2018-07-27T05:50:38.781Z,40.20
2018-07-27T05:53:06.378Z,36.60
2018-07-27T05:55:33.994Z,33.50
2018-07-27T05:58:01.583Z,30.40
2018-07-27T06:00:29.153Z,28.00
2018-07-27T06:02:56.930Z,27.50
2018-07-27T06:05:24.459Z,24.50
2018-07-27T06:07:52.225Z,24.20
2018-07-27T06:10:19.797Z,23.60
2018-07-27T06:12:47.337Z,22.90
2018-07-27T06:15:14.928Z,23.10
2018-07-27T06:17:42.525Z,22.80
2018-07-27T06:20:10.080Z,22.00
2018-07-27T06:22:37.915Z,21.70
2018-07-27T06:25:05.548Z,22.30
2018-07-27T06:27:33.089Z,22.30
2018-07-27T06:30:00.695Z,22.50
2018-07-27T06:32:28.223Z,22.30
2018-07-27T06:34:55.944Z,22.20
2018-07-27T06:37:23.535Z,22.00
2018-07-27T06:39:51.140Z,22.10
2018-07-27T06:42:18.803Z,22.60
2018-07-27T06:44:46.325Z,22.10
2018-07-27T06:47:13.861Z,22.40
2018-07-27T06:49:41.434Z,21.60
2018-07-27T06:52:09.068Z,21.90
2018-07-27T06:54:36.720Z,21.10
2018-07-27T06:57:04.249Z,21.40
2018-07-27T06:59:31.767Z,21.00
2018-07-27T07:01:59.451Z,21.00
2018-07-27T07:04:26.972Z,20.50
2018-07-27T07:06:54.520Z,20.40
2018-07-27T07:09:22.076Z,20.40
2018-07-27T07:11:49.616Z,19.80
2018-07-27T07:14:17.140Z,20.60
2018-07-27T07:16:44.720Z,21.00
2018-07-27T07:19:12.260Z,21.10
2018-07-27T07:21:39.829Z,21.00
2018-07-27T07:24:07.833Z,20.60
2018-07-27T07:26:35.748Z,20.70
2018-07-27T07:29:03.292Z,20.60
2018-07-27T07:31:30.857Z,20.80
2018-07-27T07:33:58.393Z,21.00
2018-07-27T07:36:25.914Z,21.00
2018-07-27T07:38:53.447Z,20.70
2018-07-27T07:41:21.013Z,20.40
2018-07-27T07:43:48.603Z,20.80
2018-07-27T07:46:16.160Z,21.40
2018-07-27T07:48:43.754Z,20.80
2018-07-27T07:51:11.312Z,20.30
2018-07-27T07:53:38.877Z,20.00
2018-07-27T07:56:06.408Z,19.80
2018-07-27T07:58:34.204Z,19.40
2018-07-27T08:01:01.705Z,19.50
2018-07-27T08:03:29.280Z,19.20
2018-07-27T08:05:56.824Z,19.30
2018-07-27T08:08:24.365Z,19.50
2018-07-27T08:10:51.953Z,19.50
2018-07-27T08:13:19.490Z,19.40
2018-07-27T08:15:47.042Z,19.90
2018-07-27T08:18:14.576Z,19.90
2018-07-27T08:20:42.137Z,19.90
2018-07-27T08:23:09.827Z,19.80
2018-07-27T08:26:51.343Z,19.80
2018-07-27T08:29:20.130Z,19.60
2018-07-27T08:31:48.780Z,19.30
2018-07-27T08:34:16.835Z,19.10
2018-07-27T08:36:44.550Z,19.10
2018-07-27T08:39:13.756Z,19.50
2018-07-27T08:41:41.685Z,19.80
2018-07-27T08:44:16.876Z,20.10
2018-07-27T08:46:44.558Z,19.50
2018-07-27T08:49:12.353Z,19.20
2018-07-27T08:51:40.069Z,19.20
2018-07-27T08:54:07.820Z,19.00
2018-07-27T08:56:35.420Z,19.50
2018-07-27T08:59:03.093Z,20.00
2018-07-27T09:01:30.672Z,19.70
2018-07-27T09:03:58.330Z,19.70
2018-07-27T09:06:25.894Z,19.70
2018-07-27T09:08:53.662Z,19.70
2018-07-27T09:11:21.515Z,20.00
2018-07-27T09:13:49.652Z,19.80
2018-07-27T09:16:17.304Z,20.10
2018-07-27T09:18:44.913Z,19.30
2018-07-27T09:21:12.631Z,18.90
2018-07-27T09:23:40.301Z,17.90
2018-07-27T09:26:07.829Z,18.10
2018-07-27T09:28:35.459Z,17.90
2018-07-27T09:31:03.039Z,18.50
2018-07-27T09:33:30.599Z,18.40
2018-07-27T09:35:58.180Z,18.60
2018-07-27T09:38:25.732Z,18.60
2018-07-27T09:40:53.273Z,18.40
2018-07-27T09:43:20.853Z,17.80
2018-07-27T09:45:48.422Z,17.20
2018-07-27T09:48:15.992Z,16.70
2018-07-27T09:50:44.209Z,16.70
2018-07-27T09:53:12.060Z,16.40
2018-07-27T09:55:39.750Z,16.70
2018-07-27T09:58:07.388Z,16.50
2018-07-27T10:00:40.556Z,16.70
2018-07-27T10:03:08.094Z,16.50
2018-07-27T10:05:35.647Z,16.40
2018-07-27T10:08:03.309Z,16.10
2018-07-27T10:10:30.872Z,16.30
2018-07-27T10:12:58.432Z,16.20
2018-07-27T10:15:25.980Z,15.90
2018-07-27T10:17:53.593Z,16.00
2018-07-27T10:20:21.152Z,16.50
2018-07-27T10:22:48.692Z,16.10
2018-07-27T10:25:16.239Z,16.00
2018-07-27T10:27:43.917Z,15.80
2018-07-27T10:30:11.488Z,16.30
2018-07-27T10:32:39.049Z,16.10
2018-07-27T10:35:06.614Z,16.20
2018-07-27T10:37:34.216Z,16.60
2018-07-27T10:40:01.879Z,16.50
2018-07-27T10:42:29.472Z,16.10
2018-07-27T10:44:57.066Z,16.30
2018-07-27T10:47:24.609Z,16.80
2018-07-27T10:49:52.192Z,17.30
2018-07-27T10:52:19.732Z,17.70
2018-07-27T10:54:47.566Z,17.60
2018-07-27T10:57:15.108Z,17.20
2018-07-27T10:59:42.684Z,17.20
2018-07-27T11:02:10.296Z,17.20
2018-07-27T11:04:37.980Z,17.20
2018-07-27T11:07:05.667Z,17.00
2018-07-27T11:09:33.197Z,17.30
2018-07-27T11:12:00.744Z,17.70
2018-07-27T11:14:28.463Z,18.20
2018-07-27T11:16:56.028Z,18.20
2018-07-27T11:19:23.584Z,18.80
2018-07-27T11:21:51.149Z,19.60
2018-07-27T11:24:18.684Z,20.80
2018-07-27T11:26:46.424Z,21.10
2018-07-27T11:29:13.968Z,21.30
2018-07-27T11:31:41.781Z,21.30
2018-07-27T11:34:09.413Z,22.10
2018-07-27T11:36:37.038Z,21.80
2018-07-27T11:39:07.399Z,21.40
2018-07-27T11:41:35.020Z,21.30
2018-07-27T11:44:02.629Z,21.80
2018-07-27T11:46:30.278Z,21.80
2018-07-27T11:48:57.920Z,22.20
2018-07-27T11:51:25.488Z,22.00
2018-07-27T11:53:53.044Z,22.20
2018-07-27T11:56:20.639Z,22.00
2018-07-27T11:58:48.153Z,21.80
2018-07-27T12:01:15.760Z,22.30
2018-07-27T12:03:43.292Z,22.50
2018-07-27T12:06:10.982Z,22.60
2018-07-27T12:08:38.549Z,22.70
2018-07-27T12:11:06.064Z,22.70
2018-07-27T12:13:33.896Z,22.60
2018-07-27T12:16:01.443Z,22.60
2018-07-27T12:18:28.996Z,22.60
2018-07-27T12:20:56.925Z,22.60
2018-07-27T12:23:24.198Z,22.70
2018-07-27T12:25:51.876Z,22.60
2018-07-27T12:28:19.463Z,22.60
2018-07-27T12:30:47.086Z,22.70
2018-07-27T12:33:14.684Z,22.60
2018-07-27T12:35:42.596Z,22.90
2018-07-27T12:38:10.199Z,22.70
2018-07-27T12:40:37.753Z,22.80
2018-07-27T12:43:05.434Z,22.60
2018-07-27T12:45:33.021Z,22.40
2018-07-27T12:48:00.714Z,22.10
2018-07-27T12:50:28.602Z,22.40
2018-07-27T12:52:56.153Z,22.40
2018-07-27T12:55:23.733Z,22.30
2018-07-27T12:57:51.309Z,22.30
2018-07-27T13:00:18.913Z,21.90
2018-07-27T13:02:46.493Z,22.20
2018-07-27T13:05:14.067Z,22.30
2018-07-27T13:07:41.566Z,22.60
2018-07-27T13:10:09.137Z,22.60
2018-07-27T13:12:37.542Z,22.50
2018-07-27T13:15:06.113Z,22.60
2018-07-27T13:17:33.849Z,22.80
2018-07-27T13:20:01.701Z,22.60
2018-07-27T13:22:29.549Z,22.50
2018-07-27T13:24:57.396Z,22.60
2018-07-27T13:27:25.394Z,22.20
2018-07-27T13:29:53.233Z,22.00
2018-07-27T13:32:20.825Z,22.30
2018-07-27T13:34:57.297Z,22.30
2018-07-27T13:37:26.947Z,22.20
2018-07-27T13:42:24.393Z,21.90
2018-07-27T13:44:52.013Z,22.00
2018-07-27T13:47:19.816Z,21.90
2018-07-27T13:49:47.509Z,21.80
2018-07-27T13:52:15.088Z,21.50
2018-07-27T13:54:42.660Z,21.40
2018-07-27T13:57:10.268Z,21.50
2018-07-27T13:59:37.846Z,21.90
2018-07-27T14:02:05.644Z,21.40
2018-07-27T14:04:33.226Z,21.40
2018-07-27T14:07:01.886Z,21.50
2018-07-27T14:09:29.524Z,21.50
2018-07-27T14:11:57.289Z,21.90
2018-07-27T14:14:24.986Z,21.40
2018-07-27T14:16:53.604Z,21.50
2018-07-27T14:19:21.577Z,21.80
2018-07-27T14:21:49.165Z,21.80
2018-07-27T14:24:16.766Z,21.70
2018-07-27T14:26:44.354Z,21.40
2018-07-27T14:29:12.007Z,21.80
2018-07-27T14:31:39.512Z,21.90
2018-07-27T14:34:07.465Z,21.70
2018-07-27T14:36:35.056Z,21.70
2018-07-27T14:39:02.861Z,21.60
2018-07-27T14:41:30.533Z,21.30
2018-07-27T14:43:58.084Z,21.60
2018-07-27T14:46:25.641Z,21.40
2018-07-27T14:48:53.213Z,21.60
2018-07-27T14:51:20.835Z,21.70
2018-07-27T14:53:48.377Z,21.50
2018-07-27T14:56:15.926Z,21.60
2018-07-27T14:58:43.560Z,21.40
2018-07-27T15:01:11.077Z,21.30
2018-07-27T15:03:38.683Z,21.40
2018-07-27T15:06:06.206Z,21.50
2018-07-27T15:08:33.873Z,21.50
2018-07-27T15:11:01.448Z,21.50
2018-07-27T15:13:29.021Z,21.40
2018-07-27T15:15:56.749Z,21.20
2018-07-27T15:18:24.290Z,21.10
2018-07-27T15:20:51.839Z,21.10
2018-07-27T15:23:19.441Z,21.20
2018-07-27T15:25:47.004Z,21.20
2018-07-27T15:28:14.548Z,21.20
2018-07-27T15:30:42.090Z,21.10
2018-07-27T15:33:09.628Z,20.70
2018-07-27T15:35:37.189Z,21.00
2018-07-27T15:38:04.921Z,20.80
2018-07-27T15:40:32.576Z,20.90
2018-07-27T15:43:00.148Z,20.50
2018-07-27T15:45:27.680Z,20.20
2018-07-27T15:47:55.240Z,20.40
2018-07-27T15:50:22.804Z,21.00
2018-07-27T15:52:50.452Z,21.00
2018-07-27T15:55:18.084Z,21.10
2018-07-27T15:57:45.631Z,21.40
2018-07-27T16:00:13.225Z,21.10
2018-07-27T16:02:40.824Z,20.90
2018-07-27T16:05:08.410Z,21.10
2018-07-27T16:07:35.964Z,21.10
2018-07-27T16:10:04.034Z,21.30
2018-07-27T16:12:31.657Z,20.90
2018-07-27T16:14:59.233Z,20.90
2018-07-27T16:17:26.896Z,20.90
2018-07-27T16:19:54.438Z,20.80
2018-07-27T16:22:22.040Z,20.60
2018-07-27T16:24:49.657Z,20.40
2018-07-27T16:27:17.268Z,20.30
2018-07-27T16:29:44.891Z,20.40
2018-07-27T16:32:12.467Z,20.40
2018-07-27T16:34:40.047Z,20.50
2018-07-27T16:37:07.669Z,20.70
2018-07-27T16:39:35.355Z,20.70
2018-07-27T16:42:02.990Z,20.30
2018-07-27T16:44:30.590Z,20.80
2018-07-27T16:46:58.177Z,20.60
2018-07-27T16:49:25.756Z,20.40
2018-07-27T16:51:53.328Z,20.70
2018-07-27T16:54:20.862Z,20.90
2018-07-27T16:56:48.388Z,21.10
2018-07-27T16:59:15.962Z,21.10
2018-07-27T17:01:43.588Z,20.80
2018-07-27T17:04:11.249Z,20.40
2018-07-27T17:06:38.857Z,20.60
2018-07-27T17:09:08.024Z,20.90
2018-07-27T17:11:35.596Z,20.90
2018-07-27T17:14:03.317Z,20.90
2018-07-27T17:16:30.920Z,20.60
2018-07-27T17:18:58.472Z,20.80
2018-07-27T17:21:26.036Z,21.00
2018-07-27T17:23:53.616Z,20.80
2018-07-27T17:26:21.158Z,21.00
2018-07-27T17:28:48.677Z,20.90
2018-07-27T17:31:16.282Z,21.10
2018-07-27T17:33:43.860Z,20.60
2018-07-27T17:36:11.473Z,20.90
2018-07-27T17:38:39.030Z,21.10
2018-07-27T17:41:06.855Z,21.50
2018-07-27T17:43:34.463Z,21.50
2018-07-27T17:46:02.284Z,21.70
2018-07-27T17:48:29.857Z,21.70
2018-07-27T17:50:57.407Z,21.80
2018-07-27T17:53:25.108Z,21.70
2018-07-27T17:55:52.617Z,21.90
2018-07-27T17:58:20.198Z,22.20
2018-07-27T18:00:47.770Z,22.20
2018-07-27T18:03:15.313Z,22.20
2018-07-27T18:05:43.017Z,22.20
2018-07-27T18:08:10.685Z,22.50
2018-07-27T18:10:38.296Z,22.70
2018-07-27T18:13:05.932Z,22.70
2018-07-27T18:15:33.496Z,22.80
2018-07-27T18:18:01.067Z,23.00
2018-07-27T18:20:28.684Z,22.90
2018-07-27T18:22:56.231Z,23.10
2018-07-27T18:25:23.827Z,23.30
2018-07-27T18:27:51.535Z,23.60
2018-07-27T18:30:19.083Z,23.50
2018-07-27T18:32:46.624Z,23.60
2018-07-27T18:35:14.472Z,23.70
2018-07-27T18:37:42.061Z,23.80
2018-07-27T18:40:09.764Z,23.80
2018-07-27T18:42:37.452Z,23.90
2018-07-27T18:45:05.577Z,23.90
2018-07-27T18:47:33.164Z,24.20
2018-07-27T18:50:00.709Z,24.30
2018-07-27T18:52:28.292Z,24.50
2018-07-27T18:54:55.865Z,24.60
2018-07-27T18:57:23.499Z,24.90
2018-07-27T18:59:51.112Z,24.90
2018-07-27T19:02:18.640Z,25.10
2018-07-27T19:04:46.244Z,25.20
2018-07-27T19:07:13.796Z,25.30
2018-07-27T19:09:41.729Z,25.60
2018-07-27T19:12:09.305Z,25.60
2018-07-27T19:14:36.900Z,26.00
2018-07-27T19:17:04.456Z,26.20
2018-07-27T19:19:32.016Z,26.50
2018-07-27T19:21:59.734Z,26.60
2018-07-27T19:24:27.295Z,26.80
2018-07-27T19:26:54.877Z,26.90
2018-07-27T19:29:22.440Z,27.10
2018-07-27T19:31:50.012Z,27.10
2018-07-27T19:34:17.549Z,27.40
2018-07-27T19:36:45.192Z,27.40
2018-07-27T19:39:12.804Z,27.50
2018-07-27T19:41:41.208Z,27.60
2018-07-27T19:44:08.863Z,27.70
2018-07-27T19:46:36.453Z,27.70
2018-07-27T19:49:04.147Z,27.90
2018-07-27T19:51:31.819Z,28.00
2018-07-27T19:53:59.377Z,28.10
2018-07-27T19:56:26.927Z,28.30
2018-07-27T19:58:54.460Z,28.40
2018-07-27T20:01:22.044Z,28.60
2018-07-27T20:03:49.605Z,29.00
2018-07-27T20:06:17.173Z,29.20
2018-07-27T20:08:44.793Z,29.70
2018-07-27T20:11:12.357Z,29.90
2018-07-27T20:13:39.936Z,30.20
2018-07-27T20:16:07.516Z,30.50
2018-07-27T20:18:35.142Z,30.80
2018-07-27T20:21:02.756Z,31.10
2018-07-27T20:23:30.321Z,31.30
2018-07-27T20:25:57.885Z,31.60
2018-07-27T20:28:25.496Z,31.90
2018-07-27T20:30:53.091Z,31.90
2018-07-27T20:33:20.912Z,31.90
2018-07-27T20:35:48.540Z,32.10
2018-07-27T20:38:16.116Z,32.20
2018-07-27T20:40:43.725Z,32.30
2018-07-27T20:43:11.312Z,32.40
2018-07-27T20:45:38.988Z,32.60
2018-07-27T20:48:06.752Z,32.70
2018-07-27T20:50:34.341Z,32.80
2018-07-27T20:53:01.918Z,33.00
2018-07-27T20:55:29.462Z,33.10
2018-07-27T20:57:57.044Z,33.10
2018-07-27T21:00:24.671Z,33.10
2018-07-27T21:02:52.267Z,33.30
2018-07-27T21:05:19.837Z,33.50
2018-07-27T21:07:47.403Z,33.50
2018-07-27T21:10:15.098Z,33.80
2018-07-27T21:12:42.815Z,33.90
2018-07-27T21:15:10.361Z,34.00
2018-07-27T21:17:38.829Z,34.00
2018-07-27T21:20:06.736Z,34.10
2018-07-27T21:22:34.340Z,34.10
2018-07-27T21:25:02.000Z,34.00
2018-07-27T21:27:29.568Z,34.10
2018-07-27T21:29:57.176Z,34.40
2018-07-27T21:32:25.245Z,34.50
2018-07-27T21:34:52.909Z,34.60
2018-07-27T21:37:20.584Z,34.80
2018-07-27T21:39:48.165Z,34.90
2018-07-27T21:42:15.713Z,35.10
2018-07-27T21:44:43.297Z,35.30
2018-07-27T21:47:10.976Z,35.30
2018-07-27T21:49:38.611Z,35.50
2018-07-27T21:52:06.234Z,35.80
2018-07-27T21:54:33.900Z,35.90
2018-07-27T21:57:01.437Z,35.90
2018-07-27T21:59:28.984Z,36.00
2018-07-27T22:01:56.590Z,36.80
2018-07-27T22:04:24.176Z,37.10
2018-07-27T22:06:51.737Z,36.20
2018-07-27T22:09:19.356Z,36.10
2018-07-27T22:11:46.953Z,36.30
2018-07-27T22:14:14.484Z,36.20
2018-07-27T22:16:42.093Z,36.20
2018-07-27T22:19:09.664Z,36.50
2018-07-27T22:21:37.493Z,36.60
2018-07-27T22:24:05.093Z,36.70
2018-07-27T22:26:32.703Z,36.60
2018-07-27T22:29:00.307Z,36.60
2018-07-27T22:31:27.864Z,36.80
2018-07-27T22:33:55.440Z,36.60
2018-07-27T22:36:23.086Z,36.90
2018-07-27T22:38:50.768Z,36.80
2018-07-27T22:41:18.348Z,36.30
2018-07-27T22:43:46.017Z,37.10
2018-07-27T22:46:13.560Z,36.50
2018-07-27T22:48:41.124Z,37.00
2018-07-27T22:51:08.759Z,37.00
2018-07-27T22:53:36.343Z,37.10
2018-07-27T22:56:03.921Z,37.20
2018-07-27T22:58:31.741Z,37.70
2018-07-27T23:00:59.341Z,37.50
2018-07-27T23:03:26.884Z,37.50
2018-07-27T23:05:54.500Z,37.60
2018-07-27T23:08:22.069Z,36.90
2018-07-27T23:10:49.650Z,36.80
2018-07-27T23:13:17.191Z,36.80
2018-07-27T23:15:44.762Z,36.80
2018-07-27T23:18:12.368Z,37.10
2018-07-27T23:20:39.942Z,37.40
2018-07-27T23:23:07.545Z,37.70
2018-07-27T23:25:35.128Z,37.80
2018-07-27T23:28:02.847Z,37.80
2018-07-27T23:30:30.432Z,38.00
2018-07-27T23:32:57.992Z,38.10
2018-07-27T23:35:25.597Z,38.40
2018-07-27T23:37:53.172Z,38.80
2018-07-27T23:40:20.753Z,38.90
2018-07-27T23:42:48.587Z,39.10
2018-07-27T23:45:16.149Z,39.50
2018-07-27T23:47:43.689Z,39.20
2018-07-27T23:50:11.265Z,39.40
2018-07-27T23:52:38.819Z,39.30
2018-07-27T23:55:06.401Z,39.60
2018-07-27T23:57:33.973Z,39.30
